Time;durP1;ratioP1;P1;durP2;ratioP2;P2;SDS_P1;SDS_P2;PMS_P1;PMS_P2;Temp;Humidity;BMP_temperature;BMP_pressure;BME280_temperature;BME280_humidity;BME280_pressure;Samples;Min_cycle;Max_cycle;Signal;HPM_P1;HPM_P2
2022/08/11 00:00:56;;;;;;;;;;;;;;;-142.75;100.00;76910.84;5032621;28;19920;-68
2022/08/11 00:03:21;;;;;;;;;;;;;;;-142.75;100.00;76912.81;5032606;28;19917;-69
2022/08/11 00:05:48;;;;;;;;;;;;;;;-142.75;100.00;76920.69;5015015;28;20318;-68
2022/08/11 00:08:24;;;;;;;;;;;;;;;-142.75;100.00;76920.69;5032144;28;20375;-68
2022/08/11 00:10:55;;;;;;;;;;;;;;;-142.75;100.00;76930.53;5032477;28;19916;-68
2022/08/11 00:13:21;;;;;;;;;;;;;;;-142.75;100.00;76924.63;5032467;28;19914;-69
2022/08/11 00:15:47;;;;;;;;;;;;;;;-142.75;100.00;76930.53;5014596;28;20425;-68
2022/08/11 00:18:12;;;;;;;;;;;;;;;-142.75;100.00;76942.34;5031996;28;19912;-68
2022/08/11 00:20:39;;;;;;;;;;;;;;;-142.75;100.00;76940.38;5032502;28;19960;-68
2022/08/11 00:23:06;;;;;;;;;;;;;;;-142.75;100.00;76938.41;5032175;28;19913;-68
2022/08/11 00:25:36;;;;;;;;;;;;;;;-142.75;100.00;76940.38;5032228;28;19917;-68
2022/08/11 00:28:01;;;;;;;;;;;;;;;-142.75;100.00;76946.28;5014171;28;19924;-68
2022/08/11 00:30:36;;;;;;;;;;;;;;;-142.75;100.00;76960.06;5032241;28;19913;-68
2022/08/11 00:33:03;;;;;;;;;;;;;;;-142.75;100.00;76962.03;5014522;28;19917;-68
2022/08/11 00:35:30;;;;;;;;;;;;;;;-142.75;100.00;76969.91;5032076;28;19924;-68
2022/08/11 00:37:56;;;;;;;;;;;;;;;-142.75;100.00;76991.56;5031729;28;19913;-68
2022/08/11 00:40:33;;;;;;;;;;;;;;;-142.75;100.00;76995.50;5032149;28;19921;-68
2022/08/11 00:43:07;;;;;;;;;;;;;;;-142.75;100.00;77007.31;5032148;28;19913;-68
2022/08/11 00:45:41;;;;;;;;;;;;;;;-142.75;100.00;77013.22;5032086;28;19959;-68
2022/08/11 00:48:09;;;;;;;;;;;;;;;-142.75;100.00;77032.91;5032948;28;19917;-69
2022/08/11 00:50:35;;;;;;;;;;;;;;;-142.75;100.00;77032.91;5036151;28;19968;-68
2022/08/11 00:53:03;;;;;;;;;;;;;;;-142.75;100.00;77042.75;5018286;28;19955;-67
2022/08/11 00:55:46;;;;;;;;;;;;;;;-142.75;100.00;77050.63;5036042;28;19918;-68
2022/08/11 00:58:34;;;;;;;;;;;;;;;-142.75;100.00;77058.50;5035596;28;19924;-69
2022/08/11 01:01:14;;;;;;;;;;;;;;;-142.75;100.00;77068.34;5007484;28;19913;-68
2022/08/11 01:03:48;;;;;;;;;;;;;;;-142.75;100.00;77064.41;5035916;28;19913;-68
2022/08/11 01:06:31;;;;;;;;;;;;;;;-142.75;100.00;77068.34;5018055;28;20394;-68
2022/08/11 01:08:56;;;;;;;;;;;;;;;-142.75;100.00;77072.28;5035770;28;19939;-68
2022/08/11 01:11:28;;;;;;;;;;;;;;;-142.75;100.00;77074.25;5018053;28;19988;-69
2022/08/11 01:14:02;;;;;;;;;;;;;;;-142.75;100.00;77068.34;5035723;28;19917;-68
2022/08/11 01:16:27;;;;;;;;;;;;;;;-142.75;100.00;77070.31;5017786;28;19917;-68
2022/08/11 01:19:04;;;;;;;;;;;;;;;-142.75;100.00;77074.25;5017592;28;20091;-68
2022/08/11 01:21:45;;;;;;;;;;;;;;;-142.75;100.00;77078.19;5035586;28;20310;-68
2022/08/11 01:24:29;;;;;;;;;;;;;;;-142.75;100.00;77097.88;5035559;28;20004;-68
2022/08/11 01:27:14;;;;;;;;;;;;;;;-142.75;100.00;77103.78;5035154;28;19956;-68
2022/08/11 01:29:46;;;;;;;;;;;;;;;-142.75;100.00;77099.84;5035448;28;19913;-68
2022/08/11 01:32:11;;;;;;;;;;;;;;;-142.75;100.00;77113.63;5035436;28;19917;-68
2022/08/11 01:34:42;;;;;;;;;;;;;;;-142.75;100.00;77117.56;5017480;28;19967;-68
2022/08/11 01:37:26;;;;;;;;;;;;;;;-142.75;100.00;77109.69;5034953;28;19919;-68
2022/08/11 01:40:09;;;;;;;;;;;;;;;-142.75;100.00;77105.75;5017488;28;19925;-68
2022/08/11 01:45:35;;;;;;;;;;;;;;;-142.75;100.00;77119.53;5035256;28;20399;-67
2022/08/11 01:48:32;;;;;;;;;;;;;;;-142.75;100.00;77111.66;5016888;28;20375;-67
2022/08/11 01:51:23;;;;;;;;;;;;;;;-142.75;100.00;77125.44;5035070;28;19913;-68
2022/08/11 01:53:51;;;;;;;;;;;;;;;-142.75;100.00;77121.50;5017287;28;20011;-68
2022/08/11 01:56:26;;;;;;;;;;;;;;;-142.75;100.00;77135.28;5034885;28;19924;-68
2022/08/11 01:59:10;;;;;;;;;;;;;;;-142.75;100.00;77131.34;5033912;28;19917;-68
2022/08/11 02:01:41;;;;;;;;;;;;;;;-142.75;100.00;77141.19;5016982;28;19913;-68
2022/08/11 02:04:12;;;;;;;;;;;;;;;-142.75;100.00;77147.09;5034837;28;19974;-68
2022/08/11 02:06:55;;;;;;;;;;;;;;;-142.75;100.00;77145.13;5034370;28;19913;-68
2022/08/11 02:09:42;;;;;;;;;;;;;;;-142.75;100.00;77145.13;5034688;28;20486;-68
2022/08/11 02:12:26;;;;;;;;;;;;;;;-142.75;100.00;77145.13;5034691;28;20302;-68
2022/08/11 02:15:09;;;;;;;;;;;;;;;-142.75;100.00;77133.31;5034543;28;19921;-68
2022/08/11 02:17:40;;;;;;;;;;;;;;;-142.75;100.00;77141.19;5034082;28;19949;-68
2022/08/11 02:26:04;;;;;;;;;;;;;;;-142.75;100.00;77149.06;5034392;28;19928;-68
2022/08/11 02:28:32;;;;;;;;;;;;;;;-142.75;100.00;77158.91;5016453;28;19920;-68
2022/08/11 02:33:48;;;;;;;;;;;;;;;-142.75;100.00;77156.94;5034588;28;20055;-68
2022/08/11 02:36:18;;;;;;;;;;;;;;;-142.75;100.00;77164.81;5034068;28;19963;-69
2022/08/11 02:38:46;;;;;;;;;;;;;;;-142.75;100.00;77174.66;5033893;28;19913;-68
2022/08/11 02:44:04;;;;;;;;;;;;;;;-142.75;100.00;77154.97;5034151;28;20298;-68
2022/08/11 02:46:55;;;;;;;;;;;;;;;-142.75;100.00;77154.97;5033909;28;19917;-67
2022/08/11 02:49:55;;;;;;;;;;;;;;;-142.75;100.00;77164.81;5014007;28;19924;-68
2022/08/11 02:52:35;;;;;;;;;;;;;;;-142.75;100.00;77160.88;5033886;28;19913;-68
2022/08/11 02:55:19;;;;;;;;;;;;;;;-142.75;100.00;77164.81;5033766;28;19917;-68
2022/08/11 02:57:58;;;;;;;;;;;;;;;-142.75;100.00;77164.81;5015686;28;20290;-68
2022/08/11 03:00:25;;;;;;;;;;;;;;;-142.75;100.00;77156.94;5033797;28;19913;-68
2022/08/11 03:02:59;;;;;;;;;;;;;;;-142.75;100.00;77158.91;5033676;28;19920;-68
2022/08/11 03:05:36;;;;;;;;;;;;;;;-142.75;100.00;77156.94;5015935;28;19913;-68
2022/08/11 03:08:05;;;;;;;;;;;;;;;-142.75;100.00;77145.13;5033317;28;20333;-69
2022/08/11 03:19:18;;;;;;;;;;;;;;;-142.75;100.00;77156.94;5033379;28;19920;-69
2022/08/11 03:21:51;;;;;;;;;;;;;;;-142.75;100.00;77164.81;5033399;28;20020;-68
2022/08/11 03:24:28;;;;;;;;;;;;;;;-142.75;100.00;77168.75;5033338;28;20004;-68
2022/08/11 03:27:12;;;;;;;;;;;;;;;-142.75;100.00;77188.44;5032935;28;19940;-68
2022/08/11 03:29:46;;;;;;;;;;;;;;;-142.75;100.00;77188.44;5033159;28;19960;-69
2022/08/11 03:32:32;;;;;;;;;;;;;;;-142.75;100.00;77196.31;5033138;28;19917;-69
2022/08/11 03:35:00;;;;;;;;;;;;;;;-142.75;100.00;77196.31;5002035;28;19923;-67
2022/08/11 03:37:49;;;;;;;;;;;;;;;-142.75;100.00;77204.19;5014985;28;19963;-68
2022/08/11 03:40:14;;;;;;;;;;;;;;;-142.75;100.00;77200.25;5033039;28;19916;-68
2022/08/11 03:43:02;;;;;;;;;;;;;;;-142.75;100.00;77174.66;5033004;28;20459;-68
2022/08/11 03:45:33;;;;;;;;;;;;;;;-142.75;100.00;77164.81;5032950;28;20437;-67
2022/08/11 03:48:16;;;;;;;;;;;;;;;-142.75;100.00;77168.75;5053712;22;19925;-63
2022/08/11 03:50:41;;;;;;;;;;;;;;;-142.75;100.00;77153.00;5031192;28;19975;-63
2022/08/11 03:53:13;;;;;;;;;;;;;;;-142.75;100.00;77154.97;5031968;28;19953;-64
2022/08/11 03:55:38;;;;;;;;;;;;;;;-142.75;100.00;77149.06;5032624;28;19917;-64
2022/08/11 03:58:06;;;;;;;;;;;;;;;-142.75;100.00;77149.06;5031007;28;19919;-63
2022/08/11 04:00:44;;;;;;;;;;;;;;;-142.75;100.00;77143.16;5032608;28;19920;-64
2022/08/11 04:03:18;;;;;;;;;;;;;;;-142.75;100.00;77154.97;5032618;28;20296;-64
2022/08/11 04:06:02;;;;;;;;;;;;;;;-142.75;100.00;77158.91;5032657;28;20452;-64
2022/08/11 04:08:46;;;;;;;;;;;;;;;-142.75;100.00;77164.81;5032157;28;20011;-64
2022/08/11 04:11:29;;;;;;;;;;;;;;;-142.75;100.00;77180.56;5032513;28;19920;-64
2022/08/11 04:17:06;;;;;;;;;;;;;;;-142.75;100.00;77198.28;5032069;28;19951;-63
2022/08/11 04:19:37;;;;;;;;;;;;;;;-142.75;100.00;77212.06;5032370;28;19956;-64
2022/08/11 04:22:22;;;;;;;;;;;;;;;-142.75;100.00;77229.78;5031906;28;20421;-64
2022/08/11 04:24:47;;;;;;;;;;;;;;;-142.75;100.00;77239.63;5014656;28;19936;-64
2022/08/11 04:27:21;;;;;;;;;;;;;;;-142.75;100.00;77245.53;5031942;28;19913;-64
2022/08/11 04:30:05;;;;;;;;;;;;;;;-142.75;100.00;77253.41;5032195;28;19913;-64
2022/08/11 04:32:48;;;;;;;;;;;;;;;-142.75;100.00;77263.25;5032171;28;20389;-64
2022/08/11 04:35:32;;;;;;;;;;;;;;;-142.75;100.00;77263.25;5032129;28;19917;-63
2022/08/11 04:38:16;;;;;;;;;;;;;;;-142.75;100.00;77255.38;5031824;28;19913;-64
2022/08/11 04:40:47;;;;;;;;;;;;;;;-142.75;100.00;77243.56;5014378;28;19924;-63
2022/08/11 04:43:21;;;;;;;;;;;;;;;-142.75;100.00;77243.56;5030872;28;19913;-64
2022/08/11 04:45:47;;;;;;;;;;;;;;;-142.75;100.00;77257.34;5032043;28;20371;-64
2022/08/11 05:02:47;;;;;;;;;;;;;;;-142.75;100.00;77243.56;5031974;28;19993;-63
2022/08/11 05:05:30;;;;;;;;;;;;;;;-142.75;100.00;77239.63;5014313;28;19920;-64
2022/08/11 05:07:55;;;;;;;;;;;;;;;-142.75;100.00;77235.69;5031579;28;19987;-64
2022/08/11 05:10:44;;;;;;;;;;;;;;;-142.75;100.00;77221.91;5031946;28;19944;-64
2022/08/11 05:35:47;;;;;;;;;;;;;;;-142.75;100.00;77044.72;5015590;28;19948;-64
2022/08/11 05:57:44;;;;;;;;;;;;;;;-142.75;100.00;76889.19;5014915;28;19921;-63
2022/08/11 06:00:10;;;;;;;;;;;;;;;-142.75;100.00;76867.53;5015173;28;19913;-62
2022/08/11 06:02:40;;;;;;;;;;;;;;;-142.75;100.00;76834.06;5014465;28;19918;-64
2022/08/11 06:05:05;;;;;;;;;;;;;;;-142.75;100.00;76806.50;5015160;28;20387;-64
2022/08/11 06:07:31;;;;;;;;;;;;;;;-142.75;100.00;76802.56;5007660;28;19967;-63
2022/08/11 06:09:57;;;;;;;;;;;;;;;-142.75;100.00;76778.97;5011625;28;19997;-63
2022/08/11 06:12:31;;;;;;;;;;;;;;;-142.75;100.00;76749.44;5014539;28;19913;-64
2022/08/11 06:15:00;;;;;;;;;;;;;;;-142.75;100.00;76727.78;5014335;28;19960;-63
2022/08/11 06:17:27;;;;;;;;;;;;;;;-142.75;100.00;76704.16;5014134;28;19921;-65
2022/08/11 06:19:58;;;;;;;;;;;;;;;-142.75;100.00;76676.59;5014291;28;19914;-64
2022/08/11 06:22:24;;;;;;;;;;;;;;;-142.75;100.00;76641.16;5014255;28;19914;-64
2022/08/11 06:24:51;;;;;;;;;;;;;;;-142.75;100.00;76645.09;5014421;28;19913;-63
2022/08/11 06:27:25;;;;;;;;;;;;;;;-142.75;100.00;76625.41;5013960;28;19924;-64
2022/08/11 06:29:51;;;;;;;;;;;;;;;-142.75;100.00;76609.66;5008715;28;19917;-64
2022/08/11 06:32:17;;;;;;;;;;;;;;;-142.75;100.00;76601.78;5014064;28;19924;-64
2022/08/11 06:34:54;;;;;;;;;;;;;;;-142.75;100.00;76574.22;5014093;28;19914;-64
2022/08/11 06:37:30;;;;;;;;;;;;;;;-142.75;100.00;76544.69;5013753;28;19992;-64
2022/08/11 06:39:55;;;;;;;;;;;;;;;-142.75;100.00;76550.59;5014012;28;19948;-64
2022/08/11 06:42:30;;;;;;;;;;;;;;;-142.75;100.00;76558.47;5012939;28;19972;-64
2022/08/11 06:45:11;;;;;;;;;;;;;;;-142.75;100.00;76530.91;5013558;28;19914;-64
2022/08/11 06:47:41;;;;;;;;;;;;;;;-142.75;100.00;76509.28;5013397;28;20402;-64
2022/08/11 06:52:52;;;;;;;;;;;;;;;-142.75;100.00;76475.81;5013915;28;19921;-63
2022/08/11 07:01:02;;;;;;;;;;;;;;;-142.75;100.00;76434.47;5013771;28;19920;-64
2022/08/11 07:03:31;;;;;;;;;;;;;;;-142.75;100.00;76416.75;5013267;28;19913;-65
2022/08/11 07:06:04;;;;;;;;;;;;;;;-142.75;100.00;76381.31;5013667;28;20378;-64
2022/08/11 07:16:49;;;;;;;;;;;;;;;-142.75;100.00;76318.34;5033201;28;20405;-63
2022/08/11 07:30:33;;;;;;;;;;;;;;;-142.75;100.00;76190.41;5033133;28;19963;-64
2022/08/11 07:32:59;;;;;;;;;;;;;;;-142.75;100.00;76162.84;5033227;28;20391;-63
2022/08/11 07:35:47;;;;;;;;;;;;;;;-142.75;100.00;76117.56;5032999;28;19960;-63
2022/08/11 07:38:21;;;;;;;;;;;;;;;-142.75;100.00;76078.19;5027674;28;20421;-63
2022/08/11 07:40:47;;;;;;;;;;;;;;;-142.75;100.00;76093.94;5013364;28;20383;-63
2022/08/11 07:43:13;;;;;;;;;;;;;;;-142.75;100.00;76099.84;5013184;28;19967;-64
2022/08/11 07:53:56;;;;;;;;;;;;;;;-142.75;100.00;75962.09;5013458;28;19921;-64
2022/08/11 07:56:22;;;;;;;;;;;;;;;-142.75;100.00;75952.25;5012797;28;19918;-64
2022/08/11 08:18:02;;;;;;;;;;;;;;;-142.75;92.65;75812.50;5032459;28;19964;-64
2022/08/11 08:20:35;;;;;;;;;;;;;;;-142.75;91.52;75782.97;5032327;28;19917;-65
2022/08/11 08:23:01;;;;;;;;;;;;;;;-142.75;86.80;75794.78;5032369;28;19948;-64
2022/08/11 08:25:31;;;;;;;;;;;;;;;-142.75;85.69;75794.78;5032317;28;20339;-64
2022/08/11 08:27:57;;;;;;;;;;;;;;;-142.75;82.88;75767.22;5031948;28;19913;-64
2022/08/11 08:33:10;;;;;;;;;;;;;;;-142.75;85.53;75706.22;5032587;28;20009;-64
2022/08/11 08:35:36;;;;;;;;;;;;;;;-142.75;83.30;75716.06;5032246;28;19917;-64
2022/08/11 08:38:02;;;;;;;;;;;;;;;-142.75;82.60;75694.41;5031884;28;19958;-64
2022/08/11 08:40:28;;;;;;;;;;;;;;;-142.75;83.33;75668.84;5032184;28;19921;-64
2022/08/11 08:42:58;;;;;;;;;;;;;;;-142.75;77.16;75645.22;5032184;28;20432;-64
2022/08/11 08:45:24;;;;;;;;;;;;;;;-142.75;76.12;75605.84;5032149;28;19928;-64
2022/08/11 08:48:00;;;;;;;;;;;;;;;-142.75;78.42;75607.81;5031716;28;20526;-64
2022/08/11 08:51:32;;;;;;;;;;;;;;;-142.75;74.50;75562.56;5032128;28;19920;-64
2022/08/11 08:53:13;;;;;;;;;;;;;;;-142.75;75.88;75597.97;5031838;28;19920;-65
2022/08/11 08:55:39;;;;;;;;;;;;;;;-142.75;74.17;75570.44;5031953;28;19917;-64
2022/08/11 08:58:05;;;;;;;;;;;;;;;-142.75;75.57;75513.38;5031434;28;20405;-65
2022/08/11 09:00:43;;;;;;;;;;;;;;;-142.75;70.56;75475.97;5031980;28;20378;-64
2022/08/11 09:03:09;;;;;;;;;;;;;;;-142.75;67.93;75460.22;5032155;28;19919;-64
2022/08/11 09:05:34;;;;;;;;;;;;;;;-142.75;63.94;75432.69;5032014;28;20493;-64
2022/08/11 09:08:00;;;;;;;;;;;;;;;-142.75;66.50;75436.59;5031521;28;19972;-64
2022/08/11 09:10:29;;;;;;;;;;;;;;;-142.75;66.98;75430.72;5035408;28;19917;-64
2022/08/11 09:12:55;;;;;;;;;;;;;;;-142.75;68.76;75438.56;5035823;28;20374;-65
2022/08/11 09:15:22;;;;;;;;;;;;;;;-142.75;66.05;75407.09;5035699;28;19975;-65
2022/08/11 09:17:50;;;;;;;;;;;;;;;-142.75;65.65;75391.34;5035422;28;19955;-64
2022/08/11 09:20:20;;;;;;;;;;;;;;;-142.75;62.46;75361.84;5035714;28;20367;-64
2022/08/11 09:28:16;;;;;;;;;;;;;;;-142.75;62.78;75334.28;5035522;28;19998;-65
2022/08/11 09:30:42;;;;;;;;;;;;;;;-142.75;62.16;75320.50;5035525;28;20041;-65
2022/08/11 09:33:11;;;;;;;;;;;;;;;-142.75;61.21;75298.84;5035386;28;20383;-65
2022/08/11 09:35:37;;;;;;;;;;;;;;;-142.75;60.19;75294.94;5035272;28;20026;-65
2022/08/11 09:40:48;;;;;;;;;;;;;;;-142.75;59.22;75233.91;5035323;28;19920;-64
2022/08/11 09:46:02;;;;;;;;;;;;;;;-142.75;57.79;75184.72;5035199;28;19983;-65
2022/08/11 09:48:33;;;;;;;;;;;;;;;-142.75;59.44;75159.16;5055608;22;20007;-68
2022/08/11 09:50:59;;;;;;;;;;;;;;;-142.75;59.42;75168.97;5015960;28;19929;-70
2022/08/11 09:53:26;;;;;;;;;;;;;;;-142.75;55.48;75163.09;5034478;28;19913;-69
2022/08/11 09:55:51;;;;;;;;;;;;;;;-142.75;54.58;75174.88;5034894;28;19956;-69
2022/08/11 09:58:18;;;;;;;;;;;;;;;-142.75;54.53;75184.72;5033174;28;20002;-69
2022/08/11 10:00:48;;;;;;;;;;;;;;;-142.75;53.57;75121.75;5034737;28;19917;-69
2022/08/11 10:03:23;;;;;;;;;;;;;;;-142.75;49.81;75131.59;5034540;28;20425;-69
2022/08/11 10:08:36;;;;;;;;;;;;;;;-142.75;49.04;75127.66;5033156;28;19920;-69
2022/08/11 10:11:03;;;;;;;;;;;;;;;-142.75;47.17;75149.31;5034569;28;20008;-69
2022/08/11 10:13:32;;;;;;;;;;;;;;;-142.75;47.43;75054.84;5034637;28;19920;-69
2022/08/11 10:15:59;;;;;;;;;;;;;;;-142.75;43.34;75072.56;5034505;28;20295;-69
2022/08/11 10:18:51;;;;;;;;;;;;;;;-142.75;43.91;75039.13;5034132;28;19913;-69
2022/08/11 10:21:16;;;;;;;;;;;;;;;-142.75;39.98;75029.28;5030430;28;19913;-69
2022/08/11 10:34:51;;;;;;;;;;;;;;;-142.75;43.12;74960.41;4977929;28;19921;-69
2022/08/11 10:37:19;;;;;;;;;;;;;;;-142.75;44.80;74915.16;4996689;28;19913;-69
2022/08/11 10:39:44;;;;;;;;;;;;;;;-142.75;37.29;74934.81;4996797;28;19913;-69
2022/08/11 10:44:56;;;;;;;;;;;;;;;-142.75;36.19;74984.00;5014713;28;19959;-69
2022/08/11 10:47:38;;;;;;;;;;;;;;;-142.75;37.79;74974.19;5012836;28;19938;-70
2022/08/11 11:01:09;;;;;;;;;;;;;;;-142.75;33.85;74869.88;5033741;28;19971;-69
2022/08/11 11:03:35;;;;;;;;;;;;;;;-142.75;33.65;74948.59;5033792;28;20000;-69
2022/08/11 11:06:06;;;;;;;;;;;;;;;-142.75;35.63;74919.09;5033042;28;20572;-69
2022/08/11 11:19:40;;;;;;;;;;;;;;;-142.75;31.45;74928.91;5033415;28;20390;-69
2022/08/11 11:25:07;;;;;;;;;;;;;;;-142.75;31.50;74936.78;5033704;28;19920;-70
2022/08/11 11:27:52;;;;;;;;;;;;;;;-142.75;30.25;74928.91;5033106;28;19913;-70
2022/08/11 11:30:18;;;;;;;;;;;;;;;-142.75;30.79;74954.50;5032567;28;19921;-70
2022/08/11 11:32:51;;;;;;;;;;;;;;;-142.75;32.00;74968.28;5015195;28;20008;-70
2022/08/11 11:35:25;;;;;;;;;;;;;;;-142.75;33.30;74958.44;5033084;28;20379;-70
2022/08/11 11:37:51;;;;;;;;;;;;;;;-142.75;30.61;75003.69;5032809;28;19951;-68
2022/08/11 11:40:20;;;;;;;;;;;;;;;-142.75;31.08;75035.19;5033022;28;19960;-70
2022/08/11 11:42:47;;;;;;;;;;;;;;;-142.75;30.02;75019.44;5032911;28;20434;-70
2022/08/11 11:45:16;;;;;;;;;;;;;;;-142.75;31.56;75035.19;5033049;28;20039;-70
2022/08/11 11:47:43;;;;;;;;;;;;;;;-142.75;31.33;75043.03;5032658;28;20003;-68
2022/08/11 11:50:08;;;;;;;;;;;;;;;-142.75;33.20;74974.19;5032752;28;20313;-69
2022/08/11 11:52:34;;;;;;;;;;;;;;;-142.75;31.47;75007.63;5032792;28;19917;-70
2022/08/11 11:55:01;;;;;;;;;;;;;;;-142.75;31.21;75001.72;5032714;28;19999;-70
2022/08/11 12:02:58;;;;;;;;;;;;;;;-142.75;32.16;74995.81;5032937;28;19920;-71
2022/08/11 12:05:24;;;;;;;;;;;;;;;-142.75;30.45;74923.03;5032597;28;19913;-71
2022/08/11 12:10:34;;;;;;;;;;;;;;;-142.75;29.33;74926.94;5032708;28;19923;-72
2022/08/11 12:15:45;;;;;;;;;;;;;;;-142.75;30.81;74901.38;5032775;28;19924;-71
2022/08/11 12:18:10;;;;;;;;;;;;;;;-142.75;31.07;74903.34;5014261;28;20410;-71
2022/08/11 12:20:36;;;;;;;;;;;;;;;-142.75;31.49;74924.97;5032371;28;19914;-71
2022/08/11 12:28:30;;;;;;;;;;;;;;;-142.75;29.93;74887.59;5031962;28;19923;-71
2022/08/11 12:30:55;;;;;;;;;;;;;;;-142.75;30.09;74869.88;5032351;28;20004;-71
2022/08/11 12:33:21;;;;;;;;;;;;;;;-142.75;28.82;74885.63;5032246;28;19974;-70
2022/08/11 12:35:51;;;;;;;;;;;;;;;-142.75;28.56;74885.63;5032164;28;20348;-70
2022/08/11 12:38:19;;;;;;;;;;;;;;;-142.75;29.65;74865.97;5014256;28;19921;-71
2022/08/11 12:46:32;;;;;;;;;;;;;;;-142.75;30.24;74895.47;5039110;28;19920;-70
2022/08/11 12:51:57;;;;;;;;;;;;;;;-142.75;28.66;74879.72;5038961;28;19928;-70
2022/08/11 12:54:34;;;;;;;;;;;;;;;-142.75;29.15;74903.34;5038676;28;19975;-69
2022/08/11 13:05:19;;;;;;;;;;;;;;;-142.75;29.30;74944.66;5038427;28;20397;-70
2022/08/11 13:07:45;;;;;;;;;;;;;;;-142.75;29.75;74948.59;5038165;28;19913;-69
2022/08/11 13:10:12;;;;;;;;;;;;;;;-142.75;28.24;74964.34;5038142;28;19959;-69
2022/08/11 13:12:47;;;;;;;;;;;;;;;-142.75;29.08;74948.59;5038418;28;19917;-71
2022/08/11 13:15:19;;;;;;;;;;;;;;;-142.75;28.79;74944.66;5025708;28;20039;-71
2022/08/11 13:17:47;;;;;;;;;;;;;;;-142.75;29.69;74968.28;5026087;28;19920;-70
2022/08/11 13:20:13;;;;;;;;;;;;;;;-142.75;30.05;74991.88;5045481;28;20019;-71
2022/08/11 13:22:41;;;;;;;;;;;;;;;-142.75;28.19;74987.94;5058363;28;19963;-71
2022/08/11 13:25:07;;;;;;;;;;;;;;;-142.75;30.08;75023.38;5040689;28;19964;-70
2022/08/11 13:27:33;;;;;;;;;;;;;;;-142.75;29.41;74991.88;5051248;28;19923;-70
2022/08/11 13:32:43;;;;;;;;;;;;;;;-142.75;28.32;75025.34;5038414;28;20434;-71
2022/08/11 13:35:10;;;;;;;;;;;;;;;-142.75;31.25;75048.94;5038040;28;19929;-71
2022/08/11 13:37:36;;;;;;;;;;;;;;;-142.75;32.66;75066.66;5037922;28;19914;-70
2022/08/11 13:40:01;;;;;;;;;;;;;;;-142.75;31.11;75070.59;5038212;28;20279;-70
2022/08/11 13:42:27;;;;;;;;;;;;;;;-142.75;29.91;75058.78;5045880;28;20299;-70
2022/08/11 13:44:52;;;;;;;;;;;;;;;-142.75;30.95;75023.38;5018369;28;19913;-70
2022/08/11 13:47:20;;;;;;;;;;;;;;;-142.75;30.85;75033.22;5018149;28;19940;-70
2022/08/11 13:49:46;;;;;;;;;;;;;;;-142.75;32.05;75066.66;5017893;28;20334;-70
2022/08/11 13:52:13;;;;;;;;;;;;;;;-142.75;31.09;75086.34;5032250;28;19925;-70
2022/08/11 13:54:39;;;;;;;;;;;;;;;-142.75;30.46;75129.63;5045082;28;19932;-70
2022/08/11 13:57:06;;;;;;;;;;;;;;;-142.75;32.50;75121.75;5044469;28;19917;-71
2022/08/11 13:59:31;;;;;;;;;;;;;;;-142.75;32.40;75100.09;5029921;28;20370;-71
2022/08/11 14:02:02;;;;;;;;;;;;;;;-142.75;32.22;75104.03;5037022;28;19988;-71
2022/08/11 14:04:32;;;;;;;;;;;;;;;-142.75;32.42;75153.25;5036728;28;19913;-70
2022/08/11 14:06:59;;;;;;;;;;;;;;;-142.75;32.35;75123.72;5036621;28;20391;-70
2022/08/11 14:09:31;;;;;;;;;;;;;;;-142.75;31.49;75153.25;5054658;28;19913;-71
2022/08/11 14:14:45;;;;;;;;;;;;;;;-142.75;32.30;75129.63;5053100;28;20400;-70
2022/08/11 14:17:11;;;;;;;;;;;;;;;-142.75;31.33;75143.41;5052310;28;20281;-71
2022/08/11 14:19:39;;;;;;;;;;;;;;;-142.75;33.15;75161.13;5034775;28;19913;-70
2022/08/11 14:22:08;;;;;;;;;;;;;;;-142.75;38.21;75172.91;5054599;28;19960;-70
2022/08/11 14:24:36;;;;;;;;;;;;;;;-142.75;34.76;75200.47;5054435;28;19924;-71
2022/08/11 14:27:01;;;;;;;;;;;;;;;-142.75;38.37;75190.63;5036397;28;19990;-72
2022/08/11 14:29:27;;;;;;;;;;;;;;;-142.75;38.89;75184.72;5043443;28;19918;-72
2022/08/11 14:31:57;;;;;;;;;;;;;;;-142.75;35.24;75184.72;5006722;28;19918;-70
2022/08/11 14:34:25;;;;;;;;;;;;;;;-142.75;36.79;75188.66;5012997;28;19923;-68
2022/08/11 14:36:51;;;;;;;;;;;;;;;-142.75;35.99;75192.59;5030739;28;19924;-69
2022/08/11 14:39:17;;;;;;;;;;;;;;;-142.75;38.22;75196.53;5033906;28;19913;-69
2022/08/11 14:47:17;;;;;;;;;;;;;;;-142.75;38.76;75237.84;5033480;28;19920;-70
2022/08/11 14:49:43;;;;;;;;;;;;;;;-142.75;41.75;75247.69;5033154;28;20355;-70
2022/08/11 14:52:14;;;;;;;;;;;;;;;-142.75;43.64;75237.84;5033746;28;19952;-70
2022/08/11 14:57:27;;;;;;;;;;;;;;;-142.75;36.51;75245.72;5029571;28;20465;-71
2022/08/11 14:59:53;;;;;;;;;;;;;;;-142.75;36.19;75251.63;5032845;28;20398;-70
2022/08/11 15:05:04;;;;;;;;;;;;;;;-142.75;42.99;75249.66;5029387;28;20393;-69
2022/08/11 15:07:30;;;;;;;;;;;;;;;-142.75;52.21;75255.56;5010986;28;20008;-70
2022/08/11 15:10:00;;;;;;;;;;;;;;;-142.75;51.18;75275.25;5030854;28;19998;-70
2022/08/11 15:12:25;;;;;;;;;;;;;;;-142.75;54.84;75271.31;5030174;28;19951;-69
2022/08/11 15:17:35;;;;;;;;;;;;;;;-142.75;53.70;75275.25;5032674;28;19940;-70
2022/08/11 15:25:36;;;;;;;;;;;;;;;-142.75;56.54;75279.19;5017722;28;20006;-70
2022/08/11 15:39:05;;;;;;;;;;;;;;;-142.75;58.65;75318.53;5031057;28;19971;-70
2022/08/11 15:47:25;;;;;;;;;;;;;;;-142.75;59.04;75322.47;5028120;28;19924;-70
2022/08/11 15:49:53;;;;;;;;;;;;;;;-142.75;57.03;75340.19;5039374;22;19933;-65
2022/08/11 15:52:21;;;;;;;;;;;;;;;-142.75;57.54;75352.00;5011550;28;19917;-65
2022/08/11 15:54:47;;;;;;;;;;;;;;;-142.75;56.60;75365.75;5012042;28;19921;-65
2022/08/11 16:04:10;;;;;;;;;;;;;;;-142.75;60.11;75367.72;5002763;28;19922;-65
2022/08/11 16:05:13;;;;;;;;;;;;;;;-142.75;59.06;75385.44;4992952;28;19922;-64
2022/08/11 16:07:40;;;;;;;;;;;;;;;-142.75;59.54;75391.34;5005518;28;19917;-65
2022/08/11 16:10:08;;;;;;;;;;;;;;;-142.75;60.10;75393.31;5012601;28;20362;-64
2022/08/11 16:12:38;;;;;;;;;;;;;;;-142.75;62.46;75389.38;5012521;28;20005;-65
2022/08/11 16:17:50;;;;;;;;;;;;;;;-142.75;62.89;75393.31;5006093;28;19967;-65
2022/08/11 16:20:18;;;;;;;;;;;;;;;-142.75;60.06;75401.19;4994342;28;20438;-64
2022/08/11 16:22:46;;;;;;;;;;;;;;;-142.75;58.15;75393.31;5012340;28;20287;-64
2022/08/11 16:25:14;;;;;;;;;;;;;;;-142.75;59.97;75391.34;5012230;28;19921;-64
2022/08/11 16:27:41;;;;;;;;;;;;;;;-142.75;58.45;75401.19;5011995;28;19924;-64
2022/08/11 16:30:07;;;;;;;;;;;;;;;-142.75;59.47;75395.28;5011936;28;20024;-64
2022/08/11 16:32:34;;;;;;;;;;;;;;;-142.75;60.67;75401.19;5012377;28;19914;-64
2022/08/11 16:40:30;;;;;;;;;;;;;;;-142.75;62.02;75409.06;5012382;28;19960;-64
2022/08/11 16:48:27;;;;;;;;;;;;;;;-142.75;63.41;75411.03;5012004;28;20596;-65
2022/08/11 16:50:52;;;;;;;;;;;;;;;-142.75;61.03;75409.06;5012203;28;19954;-65
2022/08/11 16:53:17;;;;;;;;;;;;;;;-142.75;61.86;75414.97;4994689;28;19953;-65
2022/08/11 16:55:45;;;;;;;;;;;;;;;-142.75;63.61;75416.94;5012205;28;19987;-65
2022/08/11 17:00:57;;;;;;;;;;;;;;;-142.75;64.44;75430.72;5012566;28;19920;-65
2022/08/11 17:14:53;;;;;;;;;;;;;;;-142.75;65.89;75444.47;5012552;28;19956;-65
2022/08/11 17:17:30;;;;;;;;;;;;;;;-142.75;67.49;75446.44;5008721;28;19917;-65
2022/08/11 17:19:58;;;;;;;;;;;;;;;-142.75;66.64;75454.31;5012022;28;19921;-65
2022/08/11 17:25:09;;;;;;;;;;;;;;;-142.75;68.83;75460.22;5012469;28;19920;-65
2022/08/11 17:27:36;;;;;;;;;;;;;;;-142.75;70.10;75470.06;5011708;28;20386;-65
2022/08/11 17:30:03;;;;;;;;;;;;;;;-142.75;71.90;75483.84;5013129;28;19913;-65
2022/08/11 17:35:28;;;;;;;;;;;;;;;-142.75;72.53;75499.59;5015870;28;19924;-65
2022/08/11 17:37:55;;;;;;;;;;;;;;;-142.75;72.74;75507.47;5015386;28;19959;-65
2022/08/11 17:40:23;;;;;;;;;;;;;;;-142.75;71.46;75507.47;5015582;28;19913;-64
2022/08/11 17:48:25;;;;;;;;;;;;;;;-142.75;70.60;75550.75;5015313;28;20020;-64
2022/08/11 17:50:54;;;;;;;;;;;;;;;-142.75;70.31;75556.66;5015363;28;19918;-66
2022/08/11 18:01:37;;;;;;;;;;;;;;;-142.75;72.36;75601.91;5015294;28;19920;-65